Miamisburg, Ohio
Current Conditions -  °F | °C
As of 11:53 AM on Saturday 22 Nov 2014 (Local Time) from KMGY Reporting Station
Overcast Overcast  
Wind Chill: 37°   Ceiling: 5500
Heat Index: 43°   Visibility: 10mi
Dew Point: 35°   Wind: 12mph
Humidity: 74%   Direction: 190°S
Pressure: 30.2"   Gusts: NA
Location:  39.64°N, 84.29°W
Report Text: KMGY 221653Z AUTO 19010KT 10SM OVC055 06/02 A3020 RMK AO2 RAE07 SLP233 P0000 T00610017
Loading
Personal Weather Stations






























Interactive Weather Map New forecast layout! Learn more

10-Day Weather Forecast

Advertisements
Track Severe Weather on mobile